Time;durP1;ratioP1;P1;durP2;ratioP2;P2;SDS_P1;SDS_P2;PMS_P1;PMS_P2;Temp;Humidity;BMP_temperature;BMP_pressure;BME280_temperature;BME280_humidity;BME280_pressure;Samples;Min_cycle;Max_cycle;Signal;HPM_P1;HPM_P2
2021/10/10 00:02:15;;;;;;;8.50;5.70;;;;;;;11.40;51.11;101028.31;5116643;28;20051;-80
2021/10/10 00:04:42;;;;;;;11.02;6.38;;;;;;;11.38;51.20;101020.47;5116114;28;20050;-80
2021/10/10 00:07:13;;;;;;;10.35;5.63;;;;;;;11.34;51.72;101016.25;5116238;28;20130;-80
2021/10/10 00:09:40;;;;;;;9.35;5.85;;;;;;;11.34;51.41;101010.97;5100920;28;20047;-79
2021/10/10 00:12:07;;;;;;;10.80;5.07;;;;;;;11.31;51.25;101011.94;5095755;28;20058;-79
2021/10/10 00:14:34;;;;;;;9.02;4.80;;;;;;;11.29;51.61;101016.41;5095933;28;20048;-80
2021/10/10 00:17:01;;;;;;;10.05;5.60;;;;;;;11.28;51.59;101014.69;5095542;28;20048;-80
2021/10/10 00:19:27;;;;;;;10.27;5.50;;;;;;;11.26;51.63;101013.03;5108386;28;20047;-80
2021/10/10 00:21:56;;;;;;;13.40;6.72;;;;;;;11.24;51.83;101020.13;5115987;28;20047;-80
2021/10/10 00:24:23;;;;;;;12.55;6.35;;;;;;;11.22;51.59;101012.31;5115725;28;20054;-79
2021/10/10 00:26:49;;;;;;;10.70;5.95;;;;;;;11.20;51.78;101019.41;5116767;28;20051;-80
2021/10/10 00:29:25;;;;;;;9.90;6.28;;;;;;;11.14;52.42;101017.03;5115785;28;20052;-79
2021/10/10 00:31:51;;;;;;;9.45;5.80;;;;;;;11.15;51.63;101014.34;5116139;28;20499;-79
2021/10/10 00:34:18;;;;;;;10.93;6.00;;;;;;;11.13;51.76;101015.28;5115991;28;20058;-80
2021/10/10 00:36:54;;;;;;;13.70;6.60;;;;;;;11.07;52.47;101014.63;5115772;28;20052;-79
2021/10/10 00:39:21;;;;;;;12.90;6.75;;;;;;;11.08;51.73;101013.72;5103766;28;20047;-80
2021/10/10 00:41:48;;;;;;;8.80;5.97;;;;;;;11.06;51.68;101010.28;5096669;28;20490;-79
2021/10/10 00:44:15;;;;;;;10.13;6.28;;;;;;;11.03;51.91;101006.91;5095121;28;20056;-79
2021/10/10 00:46:42;;;;;;;9.65;6.68;;;;;;;11.02;51.85;101007.81;5095050;28;20050;-79
2021/10/10 00:49:09;;;;;;;11.75;7.53;;;;;;;10.99;52.02;101011.41;5096918;28;20060;-80
2021/10/10 00:51:44;;;;;;;15.50;7.05;;;;;;;10.95;53.15;101005.41;5095368;28;20048;-79
2021/10/10 00:54:13;;;;;;;12.00;7.25;;;;;;;10.97;52.78;101010.63;5094850;28;20048;-79
2021/10/10 00:56:42;;;;;;;12.13;6.93;;;;;;;10.96;52.71;101006.28;5094418;28;20044;-79
2021/10/10 00:59:21;;;;;;;10.30;6.95;;;;;;;10.93;53.20;101014.28;5104606;28;20044;-79
2021/10/10 01:01:52;;;;;;;10.00;6.78;;;;;;;10.94;53.03;101002.84;5115998;28;20047;-79
2021/10/10 01:04:20;;;;;;;12.80;6.75;;;;;;;10.93;52.31;101006.41;5115015;28;20059;-79
2021/10/10 01:06:47;;;;;;;10.93;7.13;;;;;;;10.92;52.59;101007.31;5115394;28;20047;-80
2021/10/10 01:09:15;;;;;;;13.88;7.63;;;;;;;10.92;52.77;101004.69;5104604;28;20052;-80
2021/10/10 01:11:42;;;;;;;12.07;7.43;;;;;;;10.90;52.63;101006.50;5095279;28;20056;-80
2021/10/10 01:14:15;;;;;;;13.00;7.13;;;;;;;10.87;53.32;101009.28;5094736;28;20417;-80
2021/10/10 01:16:42;;;;;;;14.32;7.10;;;;;;;10.88;52.55;101003.94;5094879;28;20397;-80
2021/10/10 01:19:09;;;;;;;13.57;7.80;;;;;;;10.88;52.59;101005.72;5103819;28;20047;-80
2021/10/10 01:21:37;;;;;;;13.02;7.78;;;;;;;10.86;53.07;100999.63;5096195;28;20056;-80
2021/10/10 01:24:04;;;;;;;12.75;7.72;;;;;;;10.85;52.81;100996.16;5094357;28;20047;-79
2021/10/10 01:26:34;;;;;;;12.52;7.68;;;;;;;10.84;52.93;100999.69;5094199;28;20052;-79
2021/10/10 01:29:04;;;;;;;10.52;6.93;;;;;;;10.82;53.50;100998.91;5094745;28;20063;-79
2021/10/10 01:31:31;;;;;;;10.35;7.32;;;;;;;10.82;53.10;100994.50;5111330;28;20057;-80
2021/10/10 01:33:58;;;;;;;10.65;6.85;;;;;;;10.79;52.75;100991.97;5114845;28;20146;-79
2021/10/10 01:36:45;;;;;;;11.32;7.20;;;;;;;10.74;53.68;100990.44;5114753;28;20057;-80
2021/10/10 01:39:12;;;;;;;8.73;6.38;;;;;;;10.75;52.98;100987.75;5114569;28;20421;-80
2021/10/10 01:41:38;;;;;;;10.65;7.45;;;;;;;10.72;52.90;100993.13;5096398;28;20048;-80
2021/10/10 01:44:17;;;;;;;11.82;8.07;;;;;;;10.65;53.91;100991.66;5093875;28;20051;-80
2021/10/10 01:46:44;;;;;;;10.52;7.53;;;;;;;10.65;52.89;100986.38;5093838;28;20048;-80
2021/10/10 01:49:12;;;;;;;10.93;7.03;;;;;;;10.60;53.06;100981.28;5094243;28;20481;-80
2021/10/10 01:51:40;;;;;;;9.90;6.18;;;;;;;10.57;53.14;100985.81;5111805;28;20048;-79
2021/10/10 01:54:07;;;;;;;15.65;6.50;;;;;;;10.54;52.87;100979.72;5114355;28;20056;-80
2021/10/10 01:56:34;;;;;;;11.15;6.95;;;;;;;10.52;53.09;100981.56;5115876;28;20051;-80
2021/10/10 01:59:05;;;;;;;9.82;6.63;;;;;;;10.49;53.43;100984.31;5111879;28;20054;-79
2021/10/10 02:01:31;;;;;;;12.50;7.93;;;;;;;10.51;53.08;100973.72;5114288;28;20048;-79
2021/10/10 02:03:58;;;;;;;9.85;6.93;;;;;;;10.52;53.36;100976.31;5113933;28;20109;-79
2021/10/10 02:06:26;;;;;;;13.95;7.95;;;;;;;10.53;53.41;100975.38;5113906;28;20051;-79
2021/10/10 02:08:53;;;;;;;13.57;9.00;;;;;;;10.57;53.43;100976.13;5114206;28;20469;-79
2021/10/10 02:11:19;;;;;;;12.23;8.00;;;;;;;10.59;53.52;100976.06;5114130;28;20048;-79
2021/10/10 02:13:59;;;;;;;13.93;7.35;;;;;;;10.55;53.96;100968.28;5112081;28;20056;-79
2021/10/10 02:16:26;;;;;;;14.98;8.07;;;;;;;10.60;53.66;100961.97;5093314;28;20055;-79
2021/10/10 02:18:53;;;;;;;16.90;8.20;;;;;;;10.60;53.40;100968.13;5099442;28;20067;-79
2021/10/10 02:21:20;;;;;;;11.73;7.90;;;;;;;10.59;53.25;100963.78;5114133;28;20059;-79
2021/10/10 02:23:47;;;;;;;12.80;7.93;;;;;;;10.58;53.18;100962.03;5113847;28;20486;-79
2021/10/10 02:26:13;;;;;;;10.73;6.97;;;;;;;10.58;53.06;100958.56;5113429;28;20040;-79
2021/10/10 02:28:41;;;;;;;10.18;6.57;;;;;;;10.55;53.09;100957.75;5109250;28;20044;-79
2021/10/10 02:31:07;;;;;;;10.25;6.55;;;;;;;10.53;53.22;100951.69;5093468;28;20059;-79
2021/10/10 02:33:34;;;;;;;14.70;7.93;;;;;;;10.51;53.19;100950.03;5092959;28;20051;-79
2021/10/10 02:36:19;;;;;;;12.55;7.40;;;;;;;10.46;53.98;100952.00;5092999;28;20054;-80
2021/10/10 02:38:48;;;;;;;13.45;8.10;;;;;;;10.46;53.69;100944.94;5097226;28;20051;-80
2021/10/10 02:41:15;;;;;;;13.00;7.63;;;;;;;10.46;53.58;100944.09;5112914;28;20043;-80
2021/10/10 02:43:42;;;;;;;15.73;7.30;;;;;;;10.45;53.71;100943.22;5112928;28;20048;-80
2021/10/10 02:46:08;;;;;;;11.45;6.70;;;;;;;10.45;53.77;100948.47;5113377;28;20469;-79
2021/10/10 02:48:35;;;;;;;10.10;6.55;;;;;;;10.43;53.52;100947.63;5110127;28;20485;-79
2021/10/10 02:51:02;;;;;;;10.32;7.70;;;;;;;10.42;53.44;100945.91;5093053;28;20048;-80
2021/10/10 02:53:28;;;;;;;14.13;8.00;;;;;;;10.41;53.50;100950.34;5093012;28;20085;-79
2021/10/10 02:55:55;;;;;;;17.58;8.35;;;;;;;10.40;53.47;100945.97;5092957;28;20059;-79
2021/10/10 02:58:23;;;;;;;14.13;8.30;;;;;;;10.40;53.72;100950.41;5093756;28;20048;-79
2021/10/10 03:00:49;;;;;;;13.93;7.82;;;;;;;10.41;53.75;100946.84;5113299;28;20055;-79
2021/10/10 03:03:16;;;;;;;13.27;8.80;;;;;;;10.42;53.60;100943.28;5112969;28;20130;-79
2021/10/10 03:05:43;;;;;;;15.93;8.57;;;;;;;10.41;53.49;100942.44;5112978;28;20477;-79
2021/10/10 03:08:10;;;;;;;10.85;7.38;;;;;;;10.41;53.68;100939.81;5100758;28;20508;-79
2021/10/10 03:10:37;;;;;;;12.77;7.85;;;;;;;10.42;53.73;100943.28;5092430;28;20056;-79
2021/10/10 03:13:10;;;;;;;17.40;8.07;;;;;;;10.42;54.04;100943.28;5092457;28;20052;-79
2021/10/10 03:15:40;;;;;;;12.05;8.27;;;;;;;10.43;53.82;100945.88;5092692;28;20054;-79
2021/10/10 03:18:07;;;;;;;15.07;8.85;;;;;;;10.46;53.48;100941.47;5103642;28;20057;-79
2021/10/10 03:20:34;;;;;;;12.63;8.38;;;;;;;10.47;53.57;100943.16;5110749;28;20048;-79
2021/10/10 03:23:00;;;;;;;12.85;8.73;;;;;;;10.47;53.43;100944.00;5112982;28;20835;-80
2021/10/10 03:25:28;;;;;;;13.18;8.90;;;;;;;10.48;53.50;100945.75;5112537;28;20047;-79
2021/10/10 03:27:54;;;;;;;12.07;7.85;;;;;;;10.48;53.41;100943.13;5112713;28;20063;-79
2021/10/10 03:30:21;;;;;;;12.45;7.82;;;;;;;10.50;53.41;100940.44;5106936;28;20056;-79
2021/10/10 03:32:56;;;;;;;15.57;8.25;;;;;;;10.48;53.57;100935.22;5092199;28;20047;-79
2021/10/10 03:35:22;;;;;;;19.33;8.95;;;;;;;10.50;53.37;100930.75;5092131;28;20058;-80
2021/10/10 03:37:49;;;;;;;16.10;9.70;;;;;;;10.51;53.27;100926.34;5092210;28;20063;-79
2021/10/10 03:40:19;;;;;;;13.02;9.15;;;;;;;10.50;53.34;100922.00;5096563;28;20043;-80
2021/10/10 03:42:46;;;;;;;12.52;7.88;;;;;;;10.50;53.31;100927.25;5112442;28;20086;-80
2021/10/10 03:45:32;;;;;;;16.75;9.70;;;;;;;10.45;53.80;100930.06;5112446;28;20052;-79
2021/10/10 03:47:59;;;;;;;13.38;8.70;;;;;;;10.48;53.29;100922.06;5113700;28;20052;-79
2021/10/10 03:50:25;;;;;;;13.85;9.02;;;;;;;10.49;53.42;100925.53;5107072;28;20044;-79
2021/10/10 03:52:53;;;;;;;14.18;8.65;;;;;;;10.49;53.27;100922.88;5093123;28;20048;-79
2021/10/10 03:57:54;;;;;;;13.20;8.20;;;;;;;10.47;53.23;100920.31;5093479;28;20048;-79
2021/10/10 04:00:21;;;;;;;13.02;8.85;;;;;;;10.47;53.33;100915.03;5097102;28;20421;-79
2021/10/10 04:02:49;;;;;;;13.93;8.25;;;;;;;10.47;53.24;100908.94;5112661;28;20066;-79
2021/10/10 04:07:43;;;;;;;11.70;8.07;;;;;;;10.45;53.23;100905.50;5113649;28;20473;-80
2021/10/10 04:10:10;;;;;;;15.98;9.32;;;;;;;10.43;52.98;100908.16;5108866;28;20040;-79
2021/10/10 04:12:37;;;;;;;13.25;8.48;;;;;;;10.43;52.95;100902.88;5091930;28;20056;-79
2021/10/10 04:15:06;;;;;;;12.50;8.38;;;;;;;10.41;53.38;100904.72;5092027;28;20052;-79
2021/10/10 04:17:32;;;;;;;13.38;8.65;;;;;;;10.40;53.27;100903.88;5091822;28;20052;-79
2021/10/10 04:19:59;;;;;;;12.77;8.57;;;;;;;10.40;53.15;100908.28;5093285;28;20494;-79
2021/10/10 04:22:26;;;;;;;13.82;9.05;;;;;;;10.39;53.15;100907.41;5112443;28;20500;-79
2021/10/10 04:24:53;;;;;;;15.13;8.77;;;;;;;10.40;53.27;100909.13;5111806;28;20051;-82
2021/10/10 04:27:19;;;;;;;17.65;8.77;;;;;;;10.40;53.42;100908.28;5113229;28;20048;-79
2021/10/10 04:29:48;;;;;;;18.40;9.68;;;;;;;10.38;53.74;100908.34;5111784;28;20143;-79
2021/10/10 04:32:15;;;;;;;14.93;8.68;;;;;;;10.39;53.55;100906.56;5115276;28;20059;-80
2021/10/10 04:34:41;;;;;;;13.52;8.40;;;;;;;10.40;53.41;100905.66;5115604;28;20047;-80
2021/10/10 04:37:08;;;;;;;14.68;8.75;;;;;;;10.40;53.42;100903.03;5116042;28;20485;-79
2021/10/10 04:39:35;;;;;;;16.77;8.98;;;;;;;10.40;53.50;100901.22;5103946;28;20938;-79
2021/10/10 04:42:05;;;;;;;15.02;9.15;;;;;;;10.40;53.63;100908.28;5034412;28;20399;-79
2021/10/10 04:44:32;;;;;;;14.48;9.35;;;;;;;10.39;53.66;100896.88;5017551;28;20415;-79
2021/10/10 04:46:59;;;;;;;13.45;8.43;;;;;;;10.39;53.55;100896.06;5017599;28;20049;-79
2021/10/10 04:49:32;;;;;;;14.70;9.60;;;;;;;10.36;54.13;100896.16;5034307;28;20050;-79
2021/10/10 04:52:01;;;;;;;13.80;8.68;;;;;;;10.36;53.72;100896.16;5017534;28;20053;-79
2021/10/10 04:54:28;;;;;;;13.07;8.55;;;;;;;10.36;53.63;100891.72;5017427;28;20060;-82
2021/10/10 04:56:56;;;;;;;13.43;8.88;;;;;;;10.36;53.74;100888.25;5017601;28;20052;-82
2021/10/10 04:59:22;;;;;;;13.43;8.48;;;;;;;10.36;53.78;100893.53;5033990;28;20052;-82
2021/10/10 05:01:49;;;;;;;17.30;9.52;;;;;;;10.35;53.71;100889.19;5111649;28;20059;-82
2021/10/10 05:04:19;;;;;;;15.55;8.55;;;;;;;10.34;54.05;100884.81;5094979;28;20090;-82
2021/10/10 05:06:46;;;;;;;16.40;9.00;;;;;;;10.35;53.64;100891.81;5095154;28;20059;-82
2021/10/10 05:09:13;;;;;;;15.27;9.23;;;;;;;10.34;53.85;100896.22;5102002;28;20043;-82
2021/10/10 05:11:39;;;;;;;15.98;9.02;;;;;;;10.34;53.74;100893.56;5115423;28;20397;-82
2021/10/10 05:14:06;;;;;;;15.85;8.52;;;;;;;10.32;53.82;100895.41;5116351;28;20500;-79
2021/10/10 05:16:37;;;;;;;15.68;9.40;;;;;;;10.30;54.07;100890.22;5114888;28;20087;-82
2021/10/10 05:19:04;;;;;;;13.63;8.88;;;;;;;10.33;53.67;100893.63;5108463;28;20047;-82
2021/10/10 05:21:30;;;;;;;16.27;9.48;;;;;;;10.32;53.72;100897.19;5111823;28;20390;-79
2021/10/10 05:23:58;;;;;;;14.40;9.68;;;;;;;10.31;53.91;100896.31;5094265;28;20044;-79
2021/10/10 05:26:25;;;;;;;15.57;9.10;;;;;;;10.33;53.79;100888.38;5094382;28;20044;-82
2021/10/10 05:28:51;;;;;;;12.38;7.93;;;;;;;10.32;53.91;100894.56;5094522;28;20066;-82
2021/10/10 05:31:23;;;;;;;16.70;9.50;;;;;;;10.29;54.13;100899.00;5113627;28;20055;-82
2021/10/10 05:33:50;;;;;;;15.20;9.40;;;;;;;10.32;53.86;100894.56;5114606;28;20057;-79
2021/10/10 05:36:17;;;;;;;16.38;10.23;;;;;;;10.30;53.85;100895.47;5114874;28;20632;-79
2021/10/10 05:38:43;;;;;;;17.02;9.07;;;;;;;10.29;53.71;100890.28;5114493;28;20055;-79
2021/10/10 05:41:10;;;;;;;19.10;9.82;;;;;;;10.28;53.87;100897.28;5096476;28;20055;-79
2021/10/10 05:43:37;;;;;;;14.02;9.32;;;;;;;10.27;54.02;100900.84;5093759;28;20048;-79
2021/10/10 05:46:04;;;;;;;13.55;9.40;;;;;;;10.25;54.09;100891.28;5093840;28;20052;-79
2021/10/10 05:48:31;;;;;;;17.55;9.63;;;;;;;10.25;53.80;100891.28;5094345;28;20064;-81
2021/10/10 05:50:58;;;;;;;15.65;10.07;;;;;;;10.22;54.00;100892.28;5115033;28;20047;-84
2021/10/10 05:53:30;;;;;;;16.17;9.40;;;;;;;10.21;54.40;100895.78;5114088;28;20052;-85
2021/10/10 05:56:02;;;;;;;14.02;8.57;;;;;;;10.20;53.93;100899.34;5114154;28;20055;-85
2021/10/10 05:58:39;;;;;;;13.55;8.50;;;;;;;10.19;53.86;100902.03;5056952;28;20044;-85
2021/10/10 06:01:17;;;;;;;14.23;9.38;;;;;;;10.13;54.55;100901.34;5039708;28;20055;-81
2021/10/10 06:03:44;;;;;;;18.15;10.38;;;;;;;10.15;54.23;100899.53;5035846;28;20510;-82
2021/10/10 06:06:11;;;;;;;15.50;9.70;;;;;;;10.15;54.03;100898.66;5035815;28;20057;-80
2021/10/10 06:08:38;;;;;;;19.38;11.50;;;;;;;10.15;54.32;100896.03;5045354;28;20049;-80
2021/10/10 06:11:05;;;;;;;19.10;9.85;;;;;;;10.14;54.29;100897.78;5056461;28;20126;-80
2021/10/10 06:13:44;;;;;;;17.13;9.77;;;;;;;10.15;54.17;100898.66;4992819;28;20609;-80
2021/10/10 06:16:13;;;;;;;15.70;9.82;;;;;;;10.15;54.32;100898.66;4993911;28;20083;-80
2021/10/10 06:18:40;;;;;;;16.80;10.68;;;;;;;10.16;54.45;100900.38;5051049;28;20049;-80
2021/10/10 06:21:08;;;;;;;15.05;9.77;;;;;;;10.19;54.38;100899.41;5035590;28;20053;-80
2021/10/10 06:23:36;;;;;;;19.17;9.98;;;;;;;10.19;54.34;100895.00;5035470;28;20067;-80
2021/10/10 06:26:02;;;;;;;14.68;8.93;;;;;;;10.21;54.48;100895.78;5052256;28;20060;-81
2021/10/10 06:28:29;;;;;;;16.63;10.35;;;;;;;10.22;54.51;100900.16;5027595;28;20060;-80
2021/10/10 06:30:57;;;;;;;14.98;9.93;;;;;;;10.23;54.48;100901.00;5038597;28;20057;-80
2021/10/10 06:33:23;;;;;;;15.32;9.98;;;;;;;10.25;54.30;100899.19;5093271;28;20059;-80
2021/10/10 06:35:52;;;;;;;17.15;10.20;;;;;;;10.26;54.46;100900.91;5093197;28;20055;-80
2021/10/10 06:38:20;;;;;;;16.98;10.60;;;;;;;10.25;54.46;100900.03;5093454;28;20054;-80
2021/10/10 06:40:47;;;;;;;15.05;10.18;;;;;;;10.27;54.31;100895.59;5093064;28;20052;-80
2021/10/10 06:43:14;;;;;;;13.90;9.80;;;;;;;10.27;54.41;100898.22;5093080;28;20056;-80
2021/10/10 06:45:42;;;;;;;14.02;10.27;;;;;;;10.29;54.64;100895.53;5093002;28;20060;-81
2021/10/10 06:48:08;;;;;;;15.75;10.20;;;;;;;10.29;54.50;100895.53;5096071;28;20048;-80
2021/10/10 06:50:38;;;;;;;14.07;10.25;;;;;;;10.29;54.92;100898.16;5113303;28;20101;-80
2021/10/10 06:53:05;;;;;;;16.42;10.73;;;;;;;10.32;54.55;100889.28;5113033;28;20054;-85
2021/10/10 06:55:32;;;;;;;18.25;9.07;;;;;;;10.33;54.62;100891.00;5112796;28;20062;-85
2021/10/10 06:58:07;;;;;;;15.50;9.90;;;;;;;10.30;55.15;100879.69;5111011;28;20048;-85
2021/10/10 07:00:34;;;;;;;15.82;9.95;;;;;;;10.37;54.60;100889.97;5092955;28;20060;-85
2021/10/10 07:03:01;;;;;;;20.00;11.63;;;;;;;10.38;54.72;100894.31;5092568;28;20067;-85
2021/10/10 07:05:28;;;;;;;18.73;10.80;;;;;;;10.40;54.64;100897.75;5092277;28;20048;-85
2021/10/10 07:07:55;;;;;;;14.88;10.25;;;;;;;10.40;54.55;100897.75;5093421;28;20101;-85
2021/10/10 07:10:22;;;;;;;15.10;10.60;;;;;;;10.42;54.80;100895.91;5112854;28;20066;-85
2021/10/10 07:12:48;;;;;;;20.75;11.27;;;;;;;10.43;54.66;100897.63;5113071;28;20416;-85
2021/10/10 07:15:15;;;;;;;15.82;10.05;;;;;;;10.45;54.81;100894.97;5113004;28;20489;-80
2021/10/10 07:17:42;;;;;;;15.35;10.45;;;;;;;10.46;54.85;100901.97;5112989;28;20067;-81
2021/10/10 07:20:42;;;;;;;15.25;10.05;;;;;;;10.48;54.84;100903.63;5099428;28;20044;-80
2021/10/10 07:25:42;;;;;;;15.43;10.35;;;;;;;10.53;55.11;100909.56;5114309;28;20052;-81
2021/10/10 07:28:09;;;;;;;15.25;10.07;;;;;;;10.55;54.91;100912.16;5112920;28;20048;-84
2021/10/10 07:30:37;;;;;;;17.13;10.50;;;;;;;10.58;55.08;100908.53;5104119;28;20052;-80
2021/10/10 07:33:04;;;;;;;19.58;11.00;;;;;;;10.60;55.12;100912.81;5092564;28;20509;-81
2021/10/10 07:35:30;;;;;;;17.83;10.73;;;;;;;10.62;55.10;100912.75;5091958;28;20055;-81
2021/10/10 07:38:04;;;;;;;16.75;11.10;;;;;;;10.62;55.62;100912.75;5092494;28;20398;-81
2021/10/10 07:40:32;;;;;;;15.98;9.75;;;;;;;10.67;54.95;100913.44;5100015;28;20063;-81
2021/10/10 07:42:58;;;;;;;15.10;10.35;;;;;;;10.70;55.19;100915.97;5112383;28;20054;-80
2021/10/10 07:45:26;;;;;;;16.60;10.25;;;;;;;10.72;55.10;100922.00;5112276;28;20048;-81
2021/10/10 07:48:02;;;;;;;14.70;10.38;;;;;;;10.78;55.45;100923.56;5112423;28;20044;-79
2021/10/10 07:50:37;;;;;;;14.68;9.65;;;;;;;10.85;55.20;100924.16;5103273;28;20674;-80
2021/10/10 07:53:05;;;;;;;18.13;10.50;;;;;;;10.88;55.31;100932.81;5092626;28;20055;-80
2021/10/10 07:55:34;;;;;;;18.17;10.50;;;;;;;10.94;55.22;100931.72;5092236;28;20052;-80
2021/10/10 07:58:00;;;;;;;16.02;9.90;;;;;;;11.00;55.21;100930.63;5091955;28;20047;-80
2021/10/10 08:00:33;;;;;;;15.02;9.23;;;;;;;11.07;55.32;100934.72;5099973;28;20063;-80
2021/10/10 08:03:02;;;;;;;14.70;10.85;;;;;;;11.13;55.41;100934.47;5112706;28;20048;-80
2021/10/10 08:05:36;;;;;;;13.25;9.70;;;;;;;11.20;55.21;100925.41;5113087;28;20418;-84
2021/10/10 08:08:05;;;;;;;12.90;9.38;;;;;;;11.28;55.26;100932.13;5057996;28;20044;-85
2021/10/10 08:10:33;;;;;;;16.27;9.68;;;;;;;11.38;55.30;100929.97;5073975;28;20053;-81
2021/10/10 08:13:00;;;;;;;15.10;9.25;;;;;;;11.45;55.16;100937.53;5058231;28;20063;-79
2021/10/10 08:15:27;;;;;;;16.42;9.75;;;;;;;11.54;54.81;100924.91;5057965;28;20051;-81
2021/10/10 08:17:54;;;;;;;15.25;9.57;;;;;;;11.62;54.83;100929.88;5074811;28;20614;-81
2021/10/10 08:20:21;;;;;;;17.08;9.73;;;;;;;11.69;54.77;100931.31;5051708;28;20049;-80
2021/10/10 08:22:48;;;;;;;13.88;9.57;;;;;;;11.76;54.67;100942.44;5054643;28;20462;-79
2021/10/10 08:25:16;;;;;;;12.75;8.95;;;;;;;11.82;54.62;100936.94;5058781;28;20055;-80
2021/10/10 08:27:45;;;;;;;14.05;8.98;;;;;;;11.85;54.51;100932.34;5095447;28;20056;-80
2021/10/10 08:30:15;;;;;;;15.55;9.80;;;;;;;11.93;54.81;100936.47;5095823;28;20051;-81
2021/10/10 08:32:45;;;;;;;15.77;10.00;;;;;;;11.98;54.40;100923.91;5095729;28;20051;-81
2021/10/10 08:35:13;;;;;;;14.70;9.90;;;;;;;12.03;54.41;100923.72;5095257;28;20044;-81
2021/10/10 08:37:45;;;;;;;16.25;9.70;;;;;;;12.06;54.50;100924.47;5095672;28;20486;-81
2021/10/10 08:40:13;;;;;;;13.40;6.53;;;;;;;12.13;54.28;100925.03;5099367;28;20051;-81
2021/10/10 08:43:13;;;;;;;12.52;8.85;;;;;;;12.15;54.19;100920.53;5115935;28;20400;-81
2021/10/10 08:45:41;;;;;;;13.07;9.13;;;;;;;12.21;54.26;100919.41;5106374;28;20482;-84
2021/10/10 08:48:08;;;;;;;15.63;9.73;;;;;;;12.25;54.16;100918.34;5115259;28;20055;-84
2021/10/10 08:50:35;;;;;;;16.55;11.07;;;;;;;12.30;54.10;100912.88;5107860;28;20044;-85
2021/10/10 08:53:01;;;;;;;14.75;9.10;;;;;;;12.33;54.16;100888.94;5095273;28;20505;-82
2021/10/10 08:55:32;;;;;;;13.63;8.25;;;;;;;12.39;54.47;100870.19;5095173;28;20055;-81
2021/10/10 08:58:25;;;;;;;14.65;8.25;;;;;;;12.45;54.85;100872.53;5094869;28;20044;-81
2021/10/10 09:01:00;;;;;;;11.35;8.30;;;;;;;12.58;54.56;100864.91;5099725;28;20512;-81
2021/10/10 09:03:29;;;;;;;11.55;8.50;;;;;;;12.70;54.57;100873.16;5109594;28;20051;-81
2021/10/10 09:05:57;;;;;;;12.77;8.40;;;;;;;12.81;54.56;100877.91;5115491;28;20051;-85
2021/10/10 09:08:46;;;;;;;11.23;8.30;;;;;;;12.88;54.30;100880.22;5114833;28;20050;-85
2021/10/10 09:11:12;;;;;;;14.48;9.15;;;;;;;13.03;54.30;100870.69;5114244;28;20059;-84
2021/10/10 09:13:42;;;;;;;14.25;8.75;;;;;;;13.14;54.61;100882.50;5114750;28;20055;-84
2021/10/10 09:16:33;;;;;;;16.65;9.00;;;;;;;13.24;54.62;100901.41;5114916;28;20056;-84
2021/10/10 09:19:00;;;;;;;12.00;8.77;;;;;;;13.39;53.91;100897.97;5114927;28;20048;-84
2021/10/10 09:21:57;;;;;;;11.75;8.40;;;;;;;13.47;53.49;100913.47;5097217;28;20058;-84
2021/10/10 09:24:27;;;;;;;12.00;8.68;;;;;;;13.60;53.61;100907.59;5094926;28;20055;-81
2021/10/10 09:26:57;;;;;;;10.98;8.20;;;;;;;13.68;53.44;100903.59;5095288;28;20052;-81
2021/10/10 09:29:51;;;;;;;13.10;8.63;;;;;;;13.77;53.66;100902.28;5094550;28;20048;-81
2021/10/10 09:32:21;;;;;;;12.98;8.65;;;;;;;13.93;53.44;100899.69;5091216;28;20542;-81
2021/10/10 09:34:49;;;;;;;12.15;8.68;;;;;;;14.03;53.44;100905.34;5094106;28;20063;-81
2021/10/10 09:39:52;;;;;;;11.30;7.85;;;;;;;14.28;53.48;100906.66;5095688;28;20405;-81
2021/10/10 09:42:36;;;;;;;11.13;8.13;;;;;;;14.39;52.74;100908.72;5093890;28;20437;-81
2021/10/10 09:45:26;;;;;;;11.50;8.32;;;;;;;14.53;52.34;100912.41;5093906;28;20084;-80
2021/10/10 09:47:57;;;;;;;12.07;8.25;;;;;;;14.67;52.29;100915.16;5094289;28;20470;-81
2021/10/10 09:50:25;;;;;;;12.18;8.68;;;;;;;14.77;52.21;100915.50;5094410;28;20383;-81
2021/10/10 09:53:09;;;;;;;13.90;9.35;;;;;;;14.80;51.27;100903.91;5093866;28;20050;-81
2021/10/10 09:56:08;;;;;;;14.15;8.60;;;;;;;14.87;51.47;100909.72;5093690;28;20055;-81
2021/10/10 09:58:44;;;;;;;10.00;8.23;;;;;;;14.96;51.60;100915.34;5093777;28;20048;-82
2021/10/10 10:01:22;;;;;;;12.27;8.45;;;;;;;15.00;51.36;100912.50;5106809;28;20580;-81
2021/10/10 10:04:03;;;;;;;11.63;8.57;;;;;;;15.06;50.80;100912.19;5113911;28;20055;-80
2021/10/10 10:06:33;;;;;;;13.00;9.25;;;;;;;15.14;51.00;100922.34;5114071;28;20047;-81
2021/10/10 10:09:03;;;;;;;12.18;9.05;;;;;;;15.20;51.07;100922.84;5113937;28;20047;-80
2021/10/10 10:11:36;;;;;;;13.52;8.82;;;;;;;15.25;52.25;100919.91;5113659;28;20059;-83
2021/10/10 10:14:08;;;;;;;16.00;9.43;;;;;;;15.35;52.47;100922.88;5113665;28;20062;-82
2021/10/10 10:16:48;;;;;;;14.13;8.88;;;;;;;15.46;52.31;100908.97;5115286;28;20059;-82
2021/10/10 10:19:22;;;;;;;15.07;9.23;;;;;;;15.62;51.28;100900.94;5114044;28;20503;-82
2021/10/10 10:21:52;;;;;;;12.38;9.52;;;;;;;15.78;51.44;100903.56;5113304;28;20052;-79
2021/10/10 10:24:21;;;;;;;14.63;9.23;;;;;;;15.94;51.31;100886.69;5113550;28;20050;-83
2021/10/10 10:26:48;;;;;;;16.70;9.55;;;;;;;16.12;51.30;100890.03;5113591;28;20051;-83
2021/10/10 10:29:26;;;;;;;14.85;10.07;;;;;;;16.26;49.91;100895.31;5112782;28;20047;-82
2021/10/10 10:31:55;;;;;;;11.13;8.93;;;;;;;16.45;49.79;100891.50;5084887;28;20056;-82
2021/10/10 10:34:33;;;;;;;13.38;9.30;;;;;;;16.54;49.38;100888.28;5093318;28;20051;-82
2021/10/10 10:37:04;;;;;;;12.13;9.27;;;;;;;16.66;48.76;100891.06;5093360;28;20059;-82
2021/10/10 10:39:43;;;;;;;13.52;8.95;;;;;;;16.71;48.43;100896.94;5092964;28;20044;-86
2021/10/10 10:42:39;;;;;;;12.88;9.02;;;;;;;16.80;49.45;100891.06;5093186;28;20422;-86
2021/10/10 10:45:33;;;;;;;13.35;8.68;;;;;;;16.90;49.13;100887.78;5093116;28;20489;-86
2021/10/10 10:48:07;;;;;;;;;;;;;;;17.04;49.73;100889.50;5093119;28;20059;-83
2021/10/10 10:50:40;;;;;;;11.68;7.80;;;;;;;17.17;48.77;100889.59;5099817;28;19920;-83
2021/10/10 10:53:11;;;;;;;12.27;9.25;;;;;;;17.23;48.23;100881.19;5113445;28;20752;-84
2021/10/10 10:55:41;;;;;;;15.82;9.25;;;;;;;17.28;47.95;100881.75;5112996;28;20056;-83
2021/10/10 10:58:10;;;;;;;12.52;9.57;;;;;;;17.32;48.10;100877.06;5113020;28;20039;-83
2021/10/10 11:04:24;;;;;;;10.18;7.93;;;;;;;17.38;48.25;100866.00;5093681;28;20679;-86
2021/10/10 11:06:58;;;;;;;14.52;9.35;;;;;;;17.51;47.57;100866.03;5093016;28;20136;-82
2021/10/10 11:09:26;;;;;;;13.70;9.57;;;;;;;17.66;49.04;100860.59;5092704;28;20494;-86
2021/10/10 11:12:00;;;;;;;11.63;8.73;;;;;;;17.83;48.28;100860.25;5109993;28;20765;-83
2021/10/10 11:15:00;;;;;;;12.73;8.32;;;;;;;18.11;47.87;100854.81;5112908;28;20074;-82
2021/10/10 11:17:26;;;;;;;11.48;8.25;;;;;;;18.52;49.77;100858.13;5113940;28;20048;-82
2021/10/10 11:19:53;;;;;;;12.90;8.25;;;;;;;18.93;49.20;100871.16;5110930;28;20055;-83
2021/10/10 11:22:27;;;;;;;11.45;8.27;;;;;;;19.38;48.39;100873.19;5092705;28;20402;-86
2021/10/10 11:24:54;;;;;;;10.85;8.45;;;;;;;19.94;49.46;100866.19;5092524;28;20058;-82
2021/10/10 11:27:26;;;;;;;11.02;8.00;;;;;;;20.57;48.74;100870.16;5092629;28;20056;-82
2021/10/10 11:29:53;;;;;;;10.60;8.40;;;;;;;21.28;49.16;100879.53;5093048;28;20052;-82
2021/10/10 11:32:19;;;;;;;11.77;8.57;;;;;;;22.02;47.54;100866.13;5092803;28;20060;-83
2021/10/10 11:34:59;;;;;;;12.18;7.93;;;;;;;22.80;45.33;100861.09;5092204;28;20157;-86
2021/10/10 11:37:26;;;;;;;9.52;7.90;;;;;;;23.54;45.00;100859.63;5092567;28;20494;-83
2021/10/10 11:40:22;;;;;;;8.98;7.35;;;;;;;24.24;42.86;100856.66;5094439;28;20060;-81
2021/10/10 11:42:54;;;;;;;10.07;7.38;;;;;;;24.98;41.38;100862.78;5116820;28;20055;-82
2021/10/10 11:45:22;;;;;;;11.07;7.18;;;;;;;25.59;40.88;100861.22;5116936;28;20051;-83